sensor_id;sensor_type;location;lat;lon;timestamp;pressure;altitude;pressure_sealevel;temperature;humidity
39491;BME280;25175;50.140;18.990;2022-08-19T00:01:52;97955.06;;;22.63;58.73
39491;BME280;25175;50.140;18.990;2022-08-19T00:04:54;97952.19;;;22.60;58.95
39491;BME280;25175;50.140;18.990;2022-08-19T00:07:57;97957.84;;;22.58;59.23
39491;BME280;25175;50.140;18.990;2022-08-19T00:11:00;97962.66;;;22.56;59.25
39491;BME280;25175;50.140;18.990;2022-08-19T00:14:03;97944.91;;;22.47;59.67
39491;BME280;25175;50.140;18.990;2022-08-19T00:17:07;97944.19;;;22.41;59.73
39491;BME280;25175;50.140;18.990;2022-08-19T00:20:14;97944.19;;;22.41;59.82
39491;BME280;25175;50.140;18.990;2022-08-19T00:23:18;97935.47;;;22.36;59.77
39491;BME280;25175;50.140;18.990;2022-08-19T00:26:21;97936.56;;;22.35;60.06
39491;BME280;25175;50.140;18.990;2022-08-19T00:29:24;97939.78;;;22.32;59.97
39491;BME280;25175;50.140;18.990;2022-08-19T00:32:27;97934.84;;;22.25;60.19
39491;BME280;25175;50.140;18.990;2022-08-19T00:35:29;97928.69;;;22.25;60.42
39491;BME280;25175;50.140;18.990;2022-08-19T00:38:31;97923.94;;;22.22;60.47
39491;BME280;25175;50.140;18.990;2022-08-19T00:41:35;97932.81;;;22.17;60.69
39491;BME280;25175;50.140;18.990;2022-08-19T00:44:37;97918.75;;;22.12;60.67
39491;BME280;25175;50.140;18.990;2022-08-19T00:47:40;97911.53;;;22.12;60.86
39491;BME280;25175;50.140;18.990;2022-08-19T00:50:43;97916.88;;;22.12;60.94
39491;BME280;25175;50.140;18.990;2022-08-19T00:53:46;97919.03;;;22.10;61.07
39491;BME280;25175;50.140;18.990;2022-08-19T00:56:50;97914.50;;;22.11;60.85
39491;BME280;25175;50.140;18.990;2022-08-19T00:59:54;97915.78;;;22.13;60.91
39491;BME280;25175;50.140;18.990;2022-08-19T01:02:57;97913.13;;;22.13;60.96
39491;BME280;25175;50.140;18.990;2022-08-19T01:05:59;97916.03;;;22.17;60.72
39491;BME280;25175;50.140;18.990;2022-08-19T01:09:02;97909.31;;;22.19;60.72
39491;BME280;25175;50.140;18.990;2022-08-19T01:12:07;97906.94;;;22.18;60.70
39491;BME280;25175;50.140;18.990;2022-08-19T01:15:12;97906.94;;;22.18;60.67
39491;BME280;25175;50.140;18.990;2022-08-19T01:18:16;97905.09;;;22.13;60.61
39491;BME280;25175;50.140;18.990;2022-08-19T01:21:26;97900.66;;;22.09;60.96
39491;BME280;25175;50.140;18.990;2022-08-19T01:24:31;97913.84;;;22.00;60.92
39491;BME280;25175;50.140;18.990;2022-08-19T01:27:38;97908.38;;;21.92;61.38
39491;BME280;25175;50.140;18.990;2022-08-19T01:30:40;97900.16;;;21.88;61.35
39491;BME280;25175;50.140;18.990;2022-08-19T01:33:44;97908.19;;;21.83;61.78
39491;BME280;25175;50.140;18.990;2022-08-19T01:36:47;97920.00;;;21.77;61.68
39491;BME280;25175;50.140;18.990;2022-08-19T01:39:51;97913.66;;;21.73;62.16
39491;BME280;25175;50.140;18.990;2022-08-19T01:42:53;97907.91;;;21.66;62.43
39491;BME280;25175;50.140;18.990;2022-08-19T01:45:55;97900.19;;;21.65;62.62
39491;BME280;25175;50.140;18.990;2022-08-19T01:48:58;97905.00;;;21.63;62.60
39491;BME280;25175;50.140;18.990;2022-08-19T01:52:00;97912.25;;;21.57;62.76
39491;BME280;25175;50.140;18.990;2022-08-19T01:55:05;97899.00;;;21.52;62.89
39491;BME280;25175;50.140;18.990;2022-08-19T01:58:12;97897.19;;;21.48;63.10
39491;BME280;25175;50.140;18.990;2022-08-19T02:01:15;97902.88;;;21.41;63.34
39491;BME280;25175;50.140;18.990;2022-08-19T02:04:17;97898.69;;;21.35;63.64
39491;BME280;25175;50.140;18.990;2022-08-19T02:07:19;97894.44;;;21.34;63.74
39491;BME280;25175;50.140;18.990;2022-08-19T02:10:24;97894.50;;;21.29;63.89
39491;BME280;25175;50.140;18.990;2022-08-19T02:13:27;97906.56;;;21.22;64.25
39491;BME280;25175;50.140;18.990;2022-08-19T02:16:30;97907.16;;;21.19;64.55
39491;BME280;25175;50.140;18.990;2022-08-19T02:19:32;97905.25;;;21.19;64.57
39491;BME280;25175;50.140;18.990;2022-08-19T02:22:34;97901.00;;;21.18;64.67
39491;BME280;25175;50.140;18.990;2022-08-19T02:25:38;97891.97;;;21.14;64.79
39491;BME280;25175;50.140;18.990;2022-08-19T02:28:41;97897.06;;;21.11;64.76
39491;BME280;25175;50.140;18.990;2022-08-19T02:31:43;97893.94;;;21.04;65.15
39491;BME280;25175;50.140;18.990;2022-08-19T02:34:46;97888.94;;;20.97;65.36
39491;BME280;25175;50.140;18.990;2022-08-19T02:37:48;97886.59;;;20.96;65.39
39491;BME280;25175;50.140;18.990;2022-08-19T02:41:12;97890.31;;;20.95;65.54
39491;BME280;25175;50.140;18.990;2022-08-19T02:44:15;97891.44;;;20.89;65.72
39491;BME280;25175;50.140;18.990;2022-08-19T02:47:18;97882.13;;;20.86;65.96
39491;BME280;25175;50.140;18.990;2022-08-19T02:50:20;97890.94;;;20.87;66.07
39491;BME280;25175;50.140;18.990;2022-08-19T02:53:24;97885.66;;;20.82;66.11
39491;BME280;25175;50.140;18.990;2022-08-19T02:56:29;97876.94;;;20.76;66.12
39491;BME280;25175;50.140;18.990;2022-08-19T02:59:32;97877.25;;;20.70;66.54
39491;BME280;25175;50.140;18.990;2022-08-19T03:02:34;97877.53;;;20.68;66.53
39491;BME280;25175;50.140;18.990;2022-08-19T03:05:36;97878.63;;;20.67;66.78
39491;BME280;25175;50.140;18.990;2022-08-19T03:08:40;97881.00;;;20.69;66.59
39491;BME280;25175;50.140;18.990;2022-08-19T03:11:44;97885.78;;;20.67;66.56
39491;BME280;25175;50.140;18.990;2022-08-19T03:14:46;97882.69;;;20.60;66.92
39491;BME280;25175;50.140;18.990;2022-08-19T03:17:48;97878.97;;;20.56;67.20
39491;BME280;25175;50.140;18.990;2022-08-19T03:20:52;97881.13;;;20.54;67.38
39491;BME280;25175;50.140;18.990;2022-08-19T03:23:56;97881.94;;;20.54;67.30
39491;BME280;25175;50.140;18.990;2022-08-19T03:27:00;97877.44;;;20.50;67.53
39491;BME280;25175;50.140;18.990;2022-08-19T03:30:04;97882.00;;;20.44;67.61
39491;BME280;25175;50.140;18.990;2022-08-19T03:33:08;97879.88;;;20.41;67.85
39491;BME280;25175;50.140;18.990;2022-08-19T03:36:13;97896.06;;;20.45;67.75
39491;BME280;25175;50.140;18.990;2022-08-19T03:39:16;97895.81;;;20.46;67.81
39491;BME280;25175;50.140;18.990;2022-08-19T03:42:19;97908.03;;;20.47;67.82
39491;BME280;25175;50.140;18.990;2022-08-19T03:45:22;97907.25;;;20.47;67.72
39491;BME280;25175;50.140;18.990;2022-08-19T03:48:24;97904.88;;;20.45;67.78
39491;BME280;25175;50.140;18.990;2022-08-19T03:51:28;97906.47;;;20.41;67.90
39491;BME280;25175;50.140;18.990;2022-08-19T03:54:31;97914.75;;;20.40;68.04
39491;BME280;25175;50.140;18.990;2022-08-19T03:57:35;97917.41;;;20.40;67.95
39491;BME280;25175;50.140;18.990;2022-08-19T04:00:37;97926.69;;;20.42;68.08
39491;BME280;25175;50.140;18.990;2022-08-19T04:03:39;97932.03;;;20.42;68.08
39491;BME280;25175;50.140;18.990;2022-08-19T04:06:43;97935.75;;;20.41;67.97
39491;BME280;25175;50.140;18.990;2022-08-19T04:09:45;97939.50;;;20.40;68.10
39491;BME280;25175;50.140;18.990;2022-08-19T04:12:48;97930.44;;;20.41;68.09
39491;BME280;25175;50.140;18.990;2022-08-19T04:15:51;97934.69;;;20.42;68.09
39491;BME280;25175;50.140;18.990;2022-08-19T04:18:53;97932.25;;;20.46;67.96
39491;BME280;25175;50.140;18.990;2022-08-19T04:21:55;97938.38;;;20.46;67.96
39491;BME280;25175;50.140;18.990;2022-08-19T04:24:58;97942.91;;;20.46;68.13
39491;BME280;25175;50.140;18.990;2022-08-19T04:28:01;97942.38;;;20.49;68.15
39491;BME280;25175;50.140;18.990;2022-08-19T04:31:04;97947.16;;;20.52;67.98
39491;BME280;25175;50.140;18.990;2022-08-19T04:34:08;97952.19;;;20.53;68.00
39491;BME280;25175;50.140;18.990;2022-08-19T04:37:11;97968.13;;;20.58;68.06
39491;BME280;25175;50.140;18.990;2022-08-19T04:40:14;97964.88;;;20.66;67.92
39491;BME280;25175;50.140;18.990;2022-08-19T04:43:37;97962.97;;;20.72;67.68
39491;BME280;25175;50.140;18.990;2022-08-19T04:46:40;97968.50;;;20.75;67.79
39491;BME280;25175;50.140;18.990;2022-08-19T04:49:42;97961.03;;;20.82;67.74
39491;BME280;25175;50.140;18.990;2022-08-19T04:52:45;97957.78;;;20.85;67.80
39491;BME280;25175;50.140;18.990;2022-08-19T04:55:47;97947.09;;;20.90;67.70
39491;BME280;25175;50.140;18.990;2022-08-19T04:58:50;97950.25;;;20.92;67.56
39491;BME280;25175;50.140;18.990;2022-08-19T05:01:53;97949.72;;;20.95;67.34
39491;BME280;25175;50.140;18.990;2022-08-19T05:04:56;97944.88;;;20.97;67.54
39491;BME280;25175;50.140;18.990;2022-08-19T05:08:01;97948.31;;;21.03;67.44
39491;BME280;25175;50.140;18.990;2022-08-19T05:11:08;97952.06;;;21.02;67.17
39491;BME280;25175;50.140;18.990;2022-08-19T05:14:13;97950.69;;;21.04;67.29
39491;BME280;25175;50.140;18.990;2022-08-19T05:17:15;97950.91;;;21.08;67.29
39491;BME280;25175;50.140;18.990;2022-08-19T05:20:17;97950.06;;;21.12;67.10
39491;BME280;25175;50.140;18.990;2022-08-19T05:23:37;97958.28;;;21.16;66.91
39491;BME280;25175;50.140;18.990;2022-08-19T05:26:43;97959.56;;;21.23;66.61
39491;BME280;25175;50.140;18.990;2022-08-19T05:29:48;97960.03;;;21.30;66.37
39491;BME280;25175;50.140;18.990;2022-08-19T05:32:50;97964.81;;;21.33;66.29
39491;BME280;25175;50.140;18.990;2022-08-19T05:35:52;97965.03;;;21.37;66.03
39491;BME280;25175;50.140;18.990;2022-08-19T05:38:55;97979.16;;;21.37;65.98
39491;BME280;25175;50.140;18.990;2022-08-19T05:41:59;97971.09;;;21.42;65.96
39491;BME280;25175;50.140;18.990;2022-08-19T05:45:03;97977.16;;;21.48;65.71
39491;BME280;25175;50.140;18.990;2022-08-19T05:48:06;97970.47;;;21.50;65.60
39491;BME280;25175;50.140;18.990;2022-08-19T05:51:08;97960.25;;;21.57;65.50
39491;BME280;25175;50.140;18.990;2022-08-19T05:54:10;97954.09;;;21.62;65.52
39491;BME280;25175;50.140;18.990;2022-08-19T05:57:14;97965.75;;;21.66;65.46
39491;BME280;25175;50.140;18.990;2022-08-19T06:00:18;97967.00;;;21.73;65.16
39491;BME280;25175;50.140;18.990;2022-08-19T06:03:20;97969.59;;;21.78;65.08
39491;BME280;25175;50.140;18.990;2022-08-19T06:06:22;97969.00;;;21.86;64.85
39491;BME280;25175;50.140;18.990;2022-08-19T06:09:24;97971.03;;;21.94;64.88
39491;BME280;25175;50.140;18.990;2022-08-19T06:12:27;97985.81;;;22.05;64.83
39491;BME280;25175;50.140;18.990;2022-08-19T06:15:33;97975.00;;;22.15;64.23
39491;BME280;25175;50.140;18.990;2022-08-19T06:18:35;97986.91;;;22.23;64.17
39491;BME280;25175;50.140;18.990;2022-08-19T06:21:40;97979.63;;;22.28;63.98
39491;BME280;25175;50.140;18.990;2022-08-19T06:24:42;97977.38;;;22.35;63.43
39491;BME280;25175;50.140;18.990;2022-08-19T06:27:45;97985.91;;;22.37;63.44
39491;BME280;25175;50.140;18.990;2022-08-19T06:30:49;97987.97;;;22.40;63.50
39491;BME280;25175;50.140;18.990;2022-08-19T06:33:52;97994.34;;;22.44;63.06
39491;BME280;25175;50.140;18.990;2022-08-19T06:36:55;97996.94;;;22.49;62.70
39491;BME280;25175;50.140;18.990;2022-08-19T06:39:57;97996.88;;;22.54;62.88
39491;BME280;25175;50.140;18.990;2022-08-19T06:42:59;97989.09;;;22.58;62.54
39491;BME280;25175;50.140;18.990;2022-08-19T06:46:09;98008.78;;;22.62;62.56
39491;BME280;25175;50.140;18.990;2022-08-19T06:49:12;98008.94;;;22.70;62.73
39491;BME280;25175;50.140;18.990;2022-08-19T06:52:15;98018.16;;;22.78;62.75
39491;BME280;25175;50.140;18.990;2022-08-19T06:55:17;98025.28;;;22.82;62.48
39491;BME280;25175;50.140;18.990;2022-08-19T06:58:19;98018.78;;;22.88;62.43
39491;BME280;25175;50.140;18.990;2022-08-19T07:01:23;98020.28;;;22.94;62.50
39491;BME280;25175;50.140;18.990;2022-08-19T07:04:28;98024.97;;;23.02;62.92
39491;BME280;25175;50.140;18.990;2022-08-19T07:07:31;98018.13;;;23.10;62.30
39491;BME280;25175;50.140;18.990;2022-08-19T07:10:34;98045.03;;;23.18;62.37
39491;BME280;25175;50.140;18.990;2022-08-19T07:13:37;98032.56;;;23.27;62.42
39491;BME280;25175;50.140;18.990;2022-08-19T07:16:40;98046.34;;;23.34;62.09
39491;BME280;25175;50.140;18.990;2022-08-19T07:19:42;98050.22;;;23.42;62.24
39491;BME280;25175;50.140;18.990;2022-08-19T07:22:45;98056.78;;;23.49;62.21
39491;BME280;25175;50.140;18.990;2022-08-19T07:25:47;98062.25;;;23.58;61.82
39491;BME280;25175;50.140;18.990;2022-08-19T07:28:49;98052.75;;;23.65;62.02
39491;BME280;25175;50.140;18.990;2022-08-19T07:31:53;98056.31;;;23.74;61.77
39491;BME280;25175;50.140;18.990;2022-08-19T07:34:56;98064.78;;;23.81;61.48
39491;BME280;25175;50.140;18.990;2022-08-19T07:38:00;98065.34;;;23.92;61.91
39491;BME280;25175;50.140;18.990;2022-08-19T07:41:06;98071.63;;;24.01;61.06
39491;BME280;25175;50.140;18.990;2022-08-19T07:44:09;98064.16;;;24.11;60.63
39491;BME280;25175;50.140;18.990;2022-08-19T07:47:13;98069.03;;;24.23;60.87
39491;BME280;25175;50.140;18.990;2022-08-19T07:50:18;98065.31;;;24.32;60.32
39491;BME280;25175;50.140;18.990;2022-08-19T07:53:21;98070.50;;;24.42;60.04
39491;BME280;25175;50.140;18.990;2022-08-19T07:56:23;98064.41;;;24.50;59.76
39491;BME280;25175;50.140;18.990;2022-08-19T07:59:27;98064.53;;;24.59;59.74
39491;BME280;25175;50.140;18.990;2022-08-19T08:02:31;98073.13;;;24.69;59.18
39491;BME280;25175;50.140;18.990;2022-08-19T08:05:33;98074.00;;;24.78;58.60
39491;BME280;25175;50.140;18.990;2022-08-19T08:08:53;98076.41;;;24.88;58.22
39491;BME280;25175;50.140;18.990;2022-08-19T08:12:23;98077.31;;;24.97;57.94
39491;BME280;25175;50.140;18.990;2022-08-19T08:15:29;98075.16;;;25.08;57.74
39491;BME280;25175;50.140;18.990;2022-08-19T08:18:32;98072.53;;;25.16;57.56
39491;BME280;25175;50.140;18.990;2022-08-19T08:21:42;98074.97;;;25.26;57.33
39491;BME280;25175;50.140;18.990;2022-08-19T08:24:44;98076.94;;;25.34;57.45
39491;BME280;25175;50.140;18.990;2022-08-19T08:27:47;98068.63;;;25.44;57.04
39491;BME280;25175;50.140;18.990;2022-08-19T08:30:51;98066.78;;;25.53;56.67
39491;BME280;25175;50.140;18.990;2022-08-19T08:33:56;98070.34;;;25.62;56.64
39491;BME280;25175;50.140;18.990;2022-08-19T08:36:58;98059.34;;;25.72;56.81
39491;BME280;25175;50.140;18.990;2022-08-19T08:40:03;98060.94;;;25.82;56.78
39491;BME280;25175;50.140;18.990;2022-08-19T08:43:09;98058.28;;;25.90;55.80
39491;BME280;25175;50.140;18.990;2022-08-19T08:46:18;98063.06;;;26.02;55.00
39491;BME280;25175;50.140;18.990;2022-08-19T08:49:32;98063.28;;;26.14;55.75
39491;BME280;25175;50.140;18.990;2022-08-19T08:52:37;98051.47;;;26.23;54.61
39491;BME280;25175;50.140;18.990;2022-08-19T08:55:44;98048.94;;;26.35;53.77
39491;BME280;25175;50.140;18.990;2022-08-19T08:58:53;98042.47;;;26.45;53.53
39491;BME280;25175;50.140;18.990;2022-08-19T09:01:57;98037.09;;;26.53;53.26
39491;BME280;25175;50.140;18.990;2022-08-19T09:05:00;98031.91;;;26.65;53.19
39491;BME280;25175;50.140;18.990;2022-08-19T09:08:07;98035.41;;;26.74;52.39
39491;BME280;25175;50.140;18.990;2022-08-19T09:11:18;98042.03;;;26.85;52.22
39491;BME280;25175;50.140;18.990;2022-08-19T09:14:32;98040.28;;;26.98;52.51
39491;BME280;25175;50.140;18.990;2022-08-19T09:17:36;98044.38;;;27.12;51.32
39491;BME280;25175;50.140;18.990;2022-08-19T09:20:40;98045.63;;;27.23;51.33
39491;BME280;25175;50.140;18.990;2022-08-19T09:23:43;98043.59;;;27.37;51.09
39491;BME280;25175;50.140;18.990;2022-08-19T09:26:45;98042.25;;;27.52;51.18
39491;BME280;25175;50.140;18.990;2022-08-19T09:29:47;98049.66;;;27.63;50.76
39491;BME280;25175;50.140;18.990;2022-08-19T09:32:50;98048.03;;;27.79;50.46
39491;BME280;25175;50.140;18.990;2022-08-19T09:36:03;98053.06;;;27.89;48.86
39491;BME280;25175;50.140;18.990;2022-08-19T09:39:06;98055.25;;;27.96;47.47
39491;BME280;25175;50.140;18.990;2022-08-19T09:42:08;98043.50;;;28.00;47.18
39491;BME280;25175;50.140;18.990;2022-08-19T09:45:13;98048.03;;;28.08;46.46
39491;BME280;25175;50.140;18.990;2022-08-19T09:48:15;98051.22;;;28.10;46.10
39491;BME280;25175;50.140;18.990;2022-08-19T09:51:20;98052.59;;;28.16;46.88
39491;BME280;25175;50.140;18.990;2022-08-19T09:54:23;98042.41;;;28.22;46.74
39491;BME280;25175;50.140;18.990;2022-08-19T09:57:27;98052.69;;;28.28;46.72
39491;BME280;25175;50.140;18.990;2022-08-19T10:00:29;98062.03;;;28.31;46.65
39491;BME280;25175;50.140;18.990;2022-08-19T10:03:33;98049.03;;;28.33;46.49
39491;BME280;25175;50.140;18.990;2022-08-19T10:06:38;98051.88;;;28.36;46.96
39491;BME280;25175;50.140;18.990;2022-08-19T10:09:43;98055.16;;;28.42;47.22
39491;BME280;25175;50.140;18.990;2022-08-19T10:12:45;98053.66;;;28.53;47.86
39491;BME280;25175;50.140;18.990;2022-08-19T10:15:48;98050.50;;;28.71;47.27
39491;BME280;25175;50.140;18.990;2022-08-19T10:18:51;98049.06;;;28.94;47.00
39491;BME280;25175;50.140;18.990;2022-08-19T10:21:55;98055.44;;;29.22;46.69
39491;BME280;25175;50.140;18.990;2022-08-19T10:24:57;98052.50;;;29.48;44.83
39491;BME280;25175;50.140;18.990;2022-08-19T10:27:59;98051.66;;;29.68;43.20
39491;BME280;25175;50.140;18.990;2022-08-19T10:31:04;98046.25;;;29.80;42.34
39491;BME280;25175;50.140;18.990;2022-08-19T10:34:07;98054.03;;;29.81;41.62
39491;BME280;25175;50.140;18.990;2022-08-19T10:37:11;98048.41;;;29.86;41.28
39491;BME280;25175;50.140;18.990;2022-08-19T10:40:13;98040.53;;;29.93;41.37
39491;BME280;25175;50.140;18.990;2022-08-19T10:43:15;98028.50;;;30.03;40.37
39491;BME280;25175;50.140;18.990;2022-08-19T10:46:18;98031.97;;;30.15;39.99
39491;BME280;25175;50.140;18.990;2022-08-19T10:49:20;98024.31;;;30.29;39.17
39491;BME280;25175;50.140;18.990;2022-08-19T10:52:26;98024.50;;;30.36;38.71
39491;BME280;25175;50.140;18.990;2022-08-19T10:55:37;98022.38;;;30.42;39.13
39491;BME280;25175;50.140;18.990;2022-08-19T10:58:57;98010.06;;;30.56;38.70
39491;BME280;25175;50.140;18.990;2022-08-19T11:02:02;98010.59;;;30.62;37.96
39491;BME280;25175;50.140;18.990;2022-08-19T11:05:05;98017.25;;;30.64;38.01
39491;BME280;25175;50.140;18.990;2022-08-19T11:08:09;98018.81;;;30.65;37.97
39491;BME280;25175;50.140;18.990;2022-08-19T11:11:12;98037.75;;;30.65;37.90
39491;BME280;25175;50.140;18.990;2022-08-19T11:14:16;98020.16;;;30.71;38.17
39491;BME280;25175;50.140;18.990;2022-08-19T11:17:20;98019.47;;;30.74;37.47
39491;BME280;25175;50.140;18.990;2022-08-19T11:20:24;98021.13;;;30.79;38.31
39491;BME280;25175;50.140;18.990;2022-08-19T11:23:27;98018.31;;;30.87;38.30
39491;BME280;25175;50.140;18.990;2022-08-19T11:26:30;98014.03;;;30.86;38.11
39491;BME280;25175;50.140;18.990;2022-08-19T11:29:32;98019.75;;;30.85;37.30
39491;BME280;25175;50.140;18.990;2022-08-19T11:32:35;98011.41;;;30.90;37.58
39491;BME280;25175;50.140;18.990;2022-08-19T11:35:39;98008.56;;;30.98;37.33
39491;BME280;25175;50.140;18.990;2022-08-19T11:38:43;98000.19;;;31.03;37.02
39491;BME280;25175;50.140;18.990;2022-08-19T11:41:45;98002.31;;;31.10;37.28
39491;BME280;25175;50.140;18.990;2022-08-19T11:44:48;98000.84;;;31.12;36.26
39491;BME280;25175;50.140;18.990;2022-08-19T11:47:50;98004.69;;;31.11;36.49
39491;BME280;25175;50.140;18.990;2022-08-19T11:50:53;97996.66;;;31.15;36.85
39491;BME280;25175;50.140;18.990;2022-08-19T11:53:58;98002.25;;;31.22;37.54
39491;BME280;25175;50.140;18.990;2022-08-19T11:57:01;98003.88;;;31.26;36.46
39491;BME280;25175;50.140;18.990;2022-08-19T12:00:05;97994.53;;;31.24;36.71
39491;BME280;25175;50.140;18.990;2022-08-19T12:03:08;97999.97;;;31.24;37.09
39491;BME280;25175;50.140;18.990;2022-08-19T12:06:14;97998.31;;;31.35;37.20
39491;BME280;25175;50.140;18.990;2022-08-19T12:09:17;97997.31;;;31.39;36.68
39491;BME280;25175;50.140;18.990;2022-08-19T12:12:19;97989.88;;;31.36;36.79
39491;BME280;25175;50.140;18.990;2022-08-19T12:15:22;97987.25;;;31.40;36.60
39491;BME280;25175;50.140;18.990;2022-08-19T12:18:25;97994.22;;;31.41;36.88
39491;BME280;25175;50.140;18.990;2022-08-19T12:21:27;97988.06;;;31.40;36.35
39491;BME280;25175;50.140;18.990;2022-08-19T12:24:32;97985.44;;;31.44;37.12
39491;BME280;25175;50.140;18.990;2022-08-19T12:27:35;97984.19;;;31.41;35.89
39491;BME280;25175;50.140;18.990;2022-08-19T12:30:37;97972.47;;;31.37;36.29
39491;BME280;25175;50.140;18.990;2022-08-19T12:33:40;97973.28;;;31.38;36.79
39491;BME280;25175;50.140;18.990;2022-08-19T12:36:43;97972.06;;;31.35;37.10
39491;BME280;25175;50.140;18.990;2022-08-19T12:39:46;97968.09;;;31.33;36.78
39491;BME280;25175;50.140;18.990;2022-08-19T12:42:48;97969.16;;;31.28;36.78
39491;BME280;25175;50.140;18.990;2022-08-19T12:45:51;97967.94;;;31.26;37.10
39491;BME280;25175;50.140;18.990;2022-08-19T12:48:54;97957.44;;;31.24;36.78
39491;BME280;25175;50.140;18.990;2022-08-19T12:51:56;97958.13;;;31.21;37.00
39491;BME280;25175;50.140;18.990;2022-08-19T12:55:00;97957.00;;;31.22;37.44
39491;BME280;25175;50.140;18.990;2022-08-19T12:58:02;97955.50;;;31.25;37.78
39491;BME280;25175;50.140;18.990;2022-08-19T13:01:10;97959.88;;;31.29;36.41
39491;BME280;25175;50.140;18.990;2022-08-19T13:04:12;97954.56;;;31.33;36.99
39491;BME280;25175;50.140;18.990;2022-08-19T13:07:14;97952.75;;;31.37;36.98
39491;BME280;25175;50.140;18.990;2022-08-19T13:10:19;97945.94;;;31.43;36.98
39491;BME280;25175;50.140;18.990;2022-08-19T13:13:22;97956.59;;;31.51;36.97
39491;BME280;25175;50.140;18.990;2022-08-19T13:16:27;97955.53;;;31.56;36.99
39491;BME280;25175;50.140;18.990;2022-08-19T13:19:29;97962.97;;;31.59;36.50
39491;BME280;25175;50.140;18.990;2022-08-19T13:22:32;97954.47;;;31.60;36.29
39491;BME280;25175;50.140;18.990;2022-08-19T13:25:35;97951.94;;;31.67;36.87
39491;BME280;25175;50.140;18.990;2022-08-19T13:28:39;97938.97;;;31.76;36.55
39491;BME280;25175;50.140;18.990;2022-08-19T13:31:59;97940.75;;;31.84;37.27
39491;BME280;25175;50.140;18.990;2022-08-19T13:35:18;97944.41;;;31.92;37.31
39491;BME280;25175;50.140;18.990;2022-08-19T13:38:21;97942.66;;;31.99;36.61
39491;BME280;25175;50.140;18.990;2022-08-19T13:41:25;97945.50;;;32.06;36.27
39491;BME280;25175;50.140;18.990;2022-08-19T13:44:28;97939.88;;;32.15;36.22
39491;BME280;25175;50.140;18.990;2022-08-19T13:47:30;97931.13;;;32.21;35.71
39491;BME280;25175;50.140;18.990;2022-08-19T13:50:33;97940.81;;;32.22;35.03
39491;BME280;25175;50.140;18.990;2022-08-19T13:53:37;97927.34;;;32.26;35.30
39491;BME280;25175;50.140;18.990;2022-08-19T13:56:42;97921.97;;;32.29;34.75
39491;BME280;25175;50.140;18.990;2022-08-19T13:59:44;97916.25;;;32.31;34.85
39491;BME280;25175;50.140;18.990;2022-08-19T14:02:47;97920.66;;;32.39;34.89
39491;BME280;25175;50.140;18.990;2022-08-19T14:05:52;97923.06;;;32.44;34.94
39491;BME280;25175;50.140;18.990;2022-08-19T14:08:54;97918.50;;;32.48;35.25
39491;BME280;25175;50.140;18.990;2022-08-19T14:11:57;97920.44;;;32.47;34.42
39491;BME280;25175;50.140;18.990;2022-08-19T14:15:00;97922.72;;;32.45;34.65
39491;BME280;25175;50.140;18.990;2022-08-19T14:18:04;97916.78;;;32.40;35.11
39491;BME280;25175;50.140;18.990;2022-08-19T14:21:07;97912.09;;;32.37;35.58
39491;BME280;25175;50.140;18.990;2022-08-19T14:24:09;97917.22;;;32.42;35.60
39491;BME280;25175;50.140;18.990;2022-08-19T14:27:13;97909.16;;;32.45;36.15
39491;BME280;25175;50.140;18.990;2022-08-19T14:30:21;97909.63;;;32.51;35.73
39491;BME280;25175;50.140;18.990;2022-08-19T14:33:26;97913.28;;;32.58;35.61
39491;BME280;25175;50.140;18.990;2022-08-19T14:36:28;97901.44;;;32.66;34.95
39491;BME280;25175;50.140;18.990;2022-08-19T14:39:31;97898.78;;;32.70;35.40
39491;BME280;25175;50.140;18.990;2022-08-19T14:42:35;97901.91;;;32.72;35.45
39491;BME280;25175;50.140;18.990;2022-08-19T14:45:39;97888.88;;;32.77;36.12
39491;BME280;25175;50.140;18.990;2022-08-19T14:48:41;97882.63;;;32.77;36.45
39491;BME280;25175;50.140;18.990;2022-08-19T14:51:43;97874.78;;;32.72;35.35
39491;BME280;25175;50.140;18.990;2022-08-19T14:54:47;97870.84;;;32.69;34.57
39491;BME280;25175;50.140;18.990;2022-08-19T14:57:51;97869.28;;;32.68;35.47
39491;BME280;25175;50.140;18.990;2022-08-19T15:00:53;97856.94;;;32.71;35.42
39491;BME280;25175;50.140;18.990;2022-08-19T15:03:55;97859.63;;;32.71;34.62
39491;BME280;25175;50.140;18.990;2022-08-19T15:06:57;97864.56;;;32.65;34.78
39491;BME280;25175;50.140;18.990;2022-08-19T15:09:59;97857.16;;;32.62;35.07
39491;BME280;25175;50.140;18.990;2022-08-19T15:13:03;97857.16;;;32.62;34.67
39491;BME280;25175;50.140;18.990;2022-08-19T15:16:06;97866.16;;;32.66;34.93
39491;BME280;25175;50.140;18.990;2022-08-19T15:19:08;97861.03;;;32.61;35.04
39491;BME280;25175;50.140;18.990;2022-08-19T15:22:11;97862.47;;;32.55;35.24
39491;BME280;25175;50.140;18.990;2022-08-19T15:25:15;97858.84;;;32.48;34.85
39491;BME280;25175;50.140;18.990;2022-08-19T15:28:22;97844.22;;;32.33;35.00
39491;BME280;25175;50.140;18.990;2022-08-19T15:31:25;97847.06;;;32.21;35.11
39491;BME280;25175;50.140;18.990;2022-08-19T15:34:29;97841.06;;;32.12;35.18
39491;BME280;25175;50.140;18.990;2022-08-19T15:37:32;97837.00;;;32.03;35.44
39491;BME280;25175;50.140;18.990;2022-08-19T15:40:34;97818.75;;;32.00;36.03
39491;BME280;25175;50.140;18.990;2022-08-19T15:43:40;97824.88;;;31.97;36.11
39491;BME280;25175;50.140;18.990;2022-08-19T15:46:43;97826.38;;;31.94;36.55
39491;BME280;25175;50.140;18.990;2022-08-19T15:49:45;97825.88;;;31.89;36.44
39491;BME280;25175;50.140;18.990;2022-08-19T15:52:50;97824.91;;;31.81;36.89
39491;BME280;25175;50.140;18.990;2022-08-19T15:55:54;97840.59;;;31.72;37.17
39491;BME280;25175;50.140;18.990;2022-08-19T15:58:58;97847.44;;;31.66;37.41
39491;BME280;25175;50.140;18.990;2022-08-19T16:02:20;97864.38;;;31.63;37.98